sensor_id;sensor_type;location;lat;lon;timestamp;temperature;humidity
4874;DHT22;2451;49.970;9.068;2023-03-18T00:01:09;9.00;99.90
4874;DHT22;2451;49.970;9.068;2023-03-18T00:03:35;9.00;99.90
4874;DHT22;2451;49.970;9.068;2023-03-18T00:06:09;9.00;99.90
4874;DHT22;2451;49.970;9.068;2023-03-18T00:08:36;9.00;99.90
4874;DHT22;2451;49.970;9.068;2023-03-18T00:11:02;9.10;99.90
4874;DHT22;2451;49.970;9.068;2023-03-18T00:13:30;9.00;99.90
4874;DHT22;2451;49.970;9.068;2023-03-18T00:15:56;9.00;99.90
4874;DHT22;2451;49.970;9.068;2023-03-18T00:18:21;9.00;99.90
4874;DHT22;2451;49.970;9.068;2023-03-18T00:20:47;9.00;99.90
4874;DHT22;2451;49.970;9.068;2023-03-18T00:23:12;9.00;99.90
4874;DHT22;2451;49.970;9.068;2023-03-18T00:25:38;9.00;99.90
4874;DHT22;2451;49.970;9.068;2023-03-18T00:28:05;9.00;99.90
4874;DHT22;2451;49.970;9.068;2023-03-18T00:30:32;9.10;99.90
4874;DHT22;2451;49.970;9.068;2023-03-18T00:32:57;9.10;99.90
4874;DHT22;2451;49.970;9.068;2023-03-18T00:35:24;9.10;99.90
4874;DHT22;2451;49.970;9.068;2023-03-18T00:37:53;9.10;99.90
4874;DHT22;2451;49.970;9.068;2023-03-18T00:40:20;9.10;99.90
4874;DHT22;2451;49.970;9.068;2023-03-18T00:42:51;9.10;99.90
4874;DHT22;2451;49.970;9.068;2023-03-18T00:45:22;9.10;99.90
4874;DHT22;2451;49.970;9.068;2023-03-18T00:47:48;9.10;99.90
4874;DHT22;2451;49.970;9.068;2023-03-18T00:50:15;9.20;99.90
4874;DHT22;2451;49.970;9.068;2023-03-18T00:52:41;9.20;99.90
4874;DHT22;2451;49.970;9.068;2023-03-18T00:55:08;9.20;99.90
4874;DHT22;2451;49.970;9.068;2023-03-18T00:57:34;9.20;99.90
4874;DHT22;2451;49.970;9.068;2023-03-18T01:00:00;9.20;99.90
4874;DHT22;2451;49.970;9.068;2023-03-18T01:02:27;9.20;99.90
4874;DHT22;2451;49.970;9.068;2023-03-18T01:04:53;9.20;99.90
4874;DHT22;2451;49.970;9.068;2023-03-18T01:07:20;9.20;99.90
4874;DHT22;2451;49.970;9.068;2023-03-18T01:09:45;9.30;99.90
4874;DHT22;2451;49.970;9.068;2023-03-18T01:12:11;9.20;99.90
4874;DHT22;2451;49.970;9.068;2023-03-18T01:14:38;9.20;99.90
4874;DHT22;2451;49.970;9.068;2023-03-18T01:17:05;9.20;99.90
4874;DHT22;2451;49.970;9.068;2023-03-18T01:19:30;9.20;99.90
4874;DHT22;2451;49.970;9.068;2023-03-18T01:21:56;9.20;99.90
4874;DHT22;2451;49.970;9.068;2023-03-18T01:24:22;9.20;99.90
4874;DHT22;2451;49.970;9.068;2023-03-18T01:26:48;9.20;99.90
4874;DHT22;2451;49.970;9.068;2023-03-18T01:29:13;9.20;99.90
4874;DHT22;2451;49.970;9.068;2023-03-18T01:31:39;9.20;99.90
4874;DHT22;2451;49.970;9.068;2023-03-18T01:34:06;9.10;99.90
4874;DHT22;2451;49.970;9.068;2023-03-18T01:36:33;9.10;99.90
4874;DHT22;2451;49.970;9.068;2023-03-18T01:38:58;9.10;99.90
4874;DHT22;2451;49.970;9.068;2023-03-18T01:41:25;9.10;99.90
4874;DHT22;2451;49.970;9.068;2023-03-18T01:43:51;9.10;99.90
4874;DHT22;2451;49.970;9.068;2023-03-18T01:46:42;9.20;99.90
4874;DHT22;2451;49.970;9.068;2023-03-18T01:52:06;9.30;99.90
4874;DHT22;2451;49.970;9.068;2023-03-18T01:54:36;9.30;99.90
4874;DHT22;2451;49.970;9.068;2023-03-18T01:57:03;9.30;99.90
4874;DHT22;2451;49.970;9.068;2023-03-18T01:59:31;9.30;99.90
4874;DHT22;2451;49.970;9.068;2023-03-18T02:02:06;9.30;99.90
4874;DHT22;2451;49.970;9.068;2023-03-18T02:04:40;9.40;99.90
4874;DHT22;2451;49.970;9.068;2023-03-18T02:07:11;9.40;99.90
4874;DHT22;2451;49.970;9.068;2023-03-18T02:09:37;9.40;99.90
4874;DHT22;2451;49.970;9.068;2023-03-18T02:12:04;9.30;99.90
4874;DHT22;2451;49.970;9.068;2023-03-18T02:14:30;9.30;99.90
4874;DHT22;2451;49.970;9.068;2023-03-18T02:17:13;9.30;99.90
4874;DHT22;2451;49.970;9.068;2023-03-18T02:19:51;9.20;99.90
4874;DHT22;2451;49.970;9.068;2023-03-18T02:27:21;9.20;99.90
4874;DHT22;2451;49.970;9.068;2023-03-18T02:29:48;9.20;99.90
4874;DHT22;2451;49.970;9.068;2023-03-18T02:32:18;9.20;99.90
4874;DHT22;2451;49.970;9.068;2023-03-18T02:34:45;9.20;99.90
4874;DHT22;2451;49.970;9.068;2023-03-18T02:37:10;9.30;99.90
4874;DHT22;2451;49.970;9.068;2023-03-18T02:39:36;9.30;99.90
4874;DHT22;2451;49.970;9.068;2023-03-18T02:42:02;9.30;99.90
4874;DHT22;2451;49.970;9.068;2023-03-18T02:44:28;9.20;99.90
4874;DHT22;2451;49.970;9.068;2023-03-18T02:47:04;9.20;99.90
4874;DHT22;2451;49.970;9.068;2023-03-18T02:49:33;9.20;99.90
4874;DHT22;2451;49.970;9.068;2023-03-18T02:51:59;9.20;99.90
4874;DHT22;2451;49.970;9.068;2023-03-18T02:54:28;9.20;99.90
4874;DHT22;2451;49.970;9.068;2023-03-18T02:56:54;9.20;99.90
4874;DHT22;2451;49.970;9.068;2023-03-18T02:59:20;9.20;99.90
4874;DHT22;2451;49.970;9.068;2023-03-18T03:01:49;9.20;99.90
4874;DHT22;2451;49.970;9.068;2023-03-18T03:04:15;9.20;99.90
4874;DHT22;2451;49.970;9.068;2023-03-18T03:06:42;9.30;99.90
4874;DHT22;2451;49.970;9.068;2023-03-18T03:09:09;9.30;99.90
4874;DHT22;2451;49.970;9.068;2023-03-18T03:11:36;9.30;99.90
4874;DHT22;2451;49.970;9.068;2023-03-18T03:14:02;9.30;99.90
4874;DHT22;2451;49.970;9.068;2023-03-18T03:16:28;9.30;99.90
4874;DHT22;2451;49.970;9.068;2023-03-18T03:18:54;9.30;99.90
4874;DHT22;2451;49.970;9.068;2023-03-18T03:21:20;9.30;99.90
4874;DHT22;2451;49.970;9.068;2023-03-18T03:23:46;9.30;99.90
4874;DHT22;2451;49.970;9.068;2023-03-18T03:26:13;9.30;99.90
4874;DHT22;2451;49.970;9.068;2023-03-18T03:28:39;9.30;99.90
4874;DHT22;2451;49.970;9.068;2023-03-18T03:31:04;9.30;99.90
4874;DHT22;2451;49.970;9.068;2023-03-18T03:33:31;9.30;99.90
4874;DHT22;2451;49.970;9.068;2023-03-18T03:35:57;9.30;99.90
4874;DHT22;2451;49.970;9.068;2023-03-18T03:38:23;9.30;99.90
4874;DHT22;2451;49.970;9.068;2023-03-18T03:40:49;9.30;99.90
4874;DHT22;2451;49.970;9.068;2023-03-18T03:43:15;9.20;99.90
4874;DHT22;2451;49.970;9.068;2023-03-18T03:45:41;9.20;99.90
4874;DHT22;2451;49.970;9.068;2023-03-18T03:48:08;9.10;99.90
4874;DHT22;2451;49.970;9.068;2023-03-18T03:50:34;9.10;99.90
4874;DHT22;2451;49.970;9.068;2023-03-18T03:53:00;9.10;99.90
4874;DHT22;2451;49.970;9.068;2023-03-18T03:55:27;9.10;99.90
4874;DHT22;2451;49.970;9.068;2023-03-18T03:57:52;9.00;99.90
4874;DHT22;2451;49.970;9.068;2023-03-18T04:00:20;9.00;99.90
4874;DHT22;2451;49.970;9.068;2023-03-18T04:02:51;9.00;99.90
4874;DHT22;2451;49.970;9.068;2023-03-18T04:05:18;8.90;99.90
4874;DHT22;2451;49.970;9.068;2023-03-18T04:07:45;8.90;99.90
4874;DHT22;2451;49.970;9.068;2023-03-18T04:10:17;8.90;99.90
4874;DHT22;2451;49.970;9.068;2023-03-18T04:12:44;8.90;99.90
4874;DHT22;2451;49.970;9.068;2023-03-18T04:15:10;8.80;99.90
4874;DHT22;2451;49.970;9.068;2023-03-18T04:17:35;8.90;99.90
4874;DHT22;2451;49.970;9.068;2023-03-18T04:20:01;8.90;99.90
4874;DHT22;2451;49.970;9.068;2023-03-18T04:22:27;8.90;99.90
4874;DHT22;2451;49.970;9.068;2023-03-18T04:24:53;9.00;99.90
4874;DHT22;2451;49.970;9.068;2023-03-18T04:27:19;9.00;99.90
4874;DHT22;2451;49.970;9.068;2023-03-18T04:29:45;9.00;99.90
4874;DHT22;2451;49.970;9.068;2023-03-18T04:32:10;9.00;99.90
4874;DHT22;2451;49.970;9.068;2023-03-18T04:34:37;9.00;99.90
4874;DHT22;2451;49.970;9.068;2023-03-18T04:37:03;9.00;99.90
4874;DHT22;2451;49.970;9.068;2023-03-18T04:39:28;8.90;99.90
4874;DHT22;2451;49.970;9.068;2023-03-18T04:41:54;8.90;99.90
4874;DHT22;2451;49.970;9.068;2023-03-18T04:44:24;8.90;99.90
4874;DHT22;2451;49.970;9.068;2023-03-18T04:46:51;9.00;99.90
4874;DHT22;2451;49.970;9.068;2023-03-18T04:49:18;9.00;99.90
4874;DHT22;2451;49.970;9.068;2023-03-18T04:51:44;9.00;99.90
4874;DHT22;2451;49.970;9.068;2023-03-18T04:54:10;9.00;99.90
4874;DHT22;2451;49.970;9.068;2023-03-18T04:56:37;9.00;99.90
4874;DHT22;2451;49.970;9.068;2023-03-18T04:59:04;9.00;99.90
4874;DHT22;2451;49.970;9.068;2023-03-18T05:01:29;8.90;99.90
4874;DHT22;2451;49.970;9.068;2023-03-18T05:03:55;8.90;99.90
4874;DHT22;2451;49.970;9.068;2023-03-18T05:06:25;8.90;99.90
4874;DHT22;2451;49.970;9.068;2023-03-18T05:08:51;8.90;99.90
4874;DHT22;2451;49.970;9.068;2023-03-18T05:11:18;8.80;99.90
4874;DHT22;2451;49.970;9.068;2023-03-18T05:13:44;8.80;99.90
4874;DHT22;2451;49.970;9.068;2023-03-18T05:16:10;8.80;99.90
4874;DHT22;2451;49.970;9.068;2023-03-18T05:18:36;8.70;99.90
4874;DHT22;2451;49.970;9.068;2023-03-18T05:21:02;8.80;99.90
4874;DHT22;2451;49.970;9.068;2023-03-18T05:23:29;8.70;99.90
4874;DHT22;2451;49.970;9.068;2023-03-18T05:25:55;8.70;99.90
4874;DHT22;2451;49.970;9.068;2023-03-18T05:28:21;8.70;99.90
4874;DHT22;2451;49.970;9.068;2023-03-18T05:30:47;8.70;99.90
4874;DHT22;2451;49.970;9.068;2023-03-18T05:33:13;8.60;99.90
4874;DHT22;2451;49.970;9.068;2023-03-18T05:35:38;8.60;99.90
4874;DHT22;2451;49.970;9.068;2023-03-18T05:38:04;8.50;99.90
4874;DHT22;2451;49.970;9.068;2023-03-18T05:40:32;8.60;99.90
4874;DHT22;2451;49.970;9.068;2023-03-18T05:42:57;8.50;99.90
4874;DHT22;2451;49.970;9.068;2023-03-18T05:45:24;8.40;99.90
4874;DHT22;2451;49.970;9.068;2023-03-18T05:47:50;8.40;99.90
4874;DHT22;2451;49.970;9.068;2023-03-18T05:50:33;8.40;99.90
4874;DHT22;2451;49.970;9.068;2023-03-18T05:53:00;8.30;99.90
4874;DHT22;2451;49.970;9.068;2023-03-18T05:55:27;8.40;99.90
4874;DHT22;2451;49.970;9.068;2023-03-18T05:57:54;8.30;99.90
4874;DHT22;2451;49.970;9.068;2023-03-18T06:00:20;8.30;99.90
4874;DHT22;2451;49.970;9.068;2023-03-18T06:02:47;8.30;99.90
4874;DHT22;2451;49.970;9.068;2023-03-18T06:05:13;8.30;99.90
4874;DHT22;2451;49.970;9.068;2023-03-18T06:07:38;8.30;99.90
4874;DHT22;2451;49.970;9.068;2023-03-18T06:10:05;8.30;99.90
4874;DHT22;2451;49.970;9.068;2023-03-18T06:12:30;8.30;99.90
4874;DHT22;2451;49.970;9.068;2023-03-18T06:14:56;8.40;99.90
4874;DHT22;2451;49.970;9.068;2023-03-18T06:17:22;8.40;99.90
4874;DHT22;2451;49.970;9.068;2023-03-18T06:19:48;8.40;99.90
4874;DHT22;2451;49.970;9.068;2023-03-18T06:22:14;8.50;99.90
4874;DHT22;2451;49.970;9.068;2023-03-18T06:24:41;8.50;99.90
4874;DHT22;2451;49.970;9.068;2023-03-18T06:27:07;8.70;99.90
4874;DHT22;2451;49.970;9.068;2023-03-18T06:29:33;8.70;99.90
4874;DHT22;2451;49.970;9.068;2023-03-18T06:31:59;8.80;99.90
4874;DHT22;2451;49.970;9.068;2023-03-18T06:34:25;8.90;99.90
4874;DHT22;2451;49.970;9.068;2023-03-18T06:36:50;9.00;99.90
4874;DHT22;2451;49.970;9.068;2023-03-18T06:39:17;9.00;99.90
4874;DHT22;2451;49.970;9.068;2023-03-18T06:41:43;9.00;99.90
4874;DHT22;2451;49.970;9.068;2023-03-18T06:44:09;9.10;99.90
4874;DHT22;2451;49.970;9.068;2023-03-18T06:46:35;9.20;99.90
4874;DHT22;2451;49.970;9.068;2023-03-18T06:49:01;9.30;99.90
4874;DHT22;2451;49.970;9.068;2023-03-18T06:51:27;9.30;99.90
4874;DHT22;2451;49.970;9.068;2023-03-18T06:53:52;9.30;99.90
4874;DHT22;2451;49.970;9.068;2023-03-18T06:56:19;9.30;99.90
4874;DHT22;2451;49.970;9.068;2023-03-18T06:58:45;9.30;99.90
4874;DHT22;2451;49.970;9.068;2023-03-18T07:01:11;9.40;99.90
4874;DHT22;2451;49.970;9.068;2023-03-18T07:03:36;9.40;99.90
4874;DHT22;2451;49.970;9.068;2023-03-18T07:06:03;9.40;99.90
4874;DHT22;2451;49.970;9.068;2023-03-18T07:08:32;9.40;99.90
4874;DHT22;2451;49.970;9.068;2023-03-18T07:10:57;9.50;99.90
4874;DHT22;2451;49.970;9.068;2023-03-18T07:13:25;9.50;99.90
4874;DHT22;2451;49.970;9.068;2023-03-18T07:15:51;9.60;99.90
4874;DHT22;2451;49.970;9.068;2023-03-18T07:18:16;9.70;99.90
4874;DHT22;2451;49.970;9.068;2023-03-18T07:20:42;9.90;99.90
4874;DHT22;2451;49.970;9.068;2023-03-18T07:23:08;10.10;99.90
4874;DHT22;2451;49.970;9.068;2023-03-18T07:25:34;10.40;99.90
4874;DHT22;2451;49.970;9.068;2023-03-18T07:28:00;10.90;99.90
4874;DHT22;2451;49.970;9.068;2023-03-18T07:30:26;11.40;99.90
4874;DHT22;2451;49.970;9.068;2023-03-18T07:32:53;11.60;99.90
4874;DHT22;2451;49.970;9.068;2023-03-18T07:35:19;11.80;99.90
4874;DHT22;2451;49.970;9.068;2023-03-18T07:37:46;11.90;99.90
4874;DHT22;2451;49.970;9.068;2023-03-18T07:40:12;11.90;99.90
4874;DHT22;2451;49.970;9.068;2023-03-18T07:42:38;11.80;99.90
4874;DHT22;2451;49.970;9.068;2023-03-18T07:45:05;11.70;99.90
4874;DHT22;2451;49.970;9.068;2023-03-18T07:47:32;11.70;99.90
4874;DHT22;2451;49.970;9.068;2023-03-18T07:49:58;11.60;99.90
4874;DHT22;2451;49.970;9.068;2023-03-18T07:52:23;11.60;99.90
4874;DHT22;2451;49.970;9.068;2023-03-18T07:54:50;11.60;99.90
4874;DHT22;2451;49.970;9.068;2023-03-18T07:57:15;11.60;99.90
4874;DHT22;2451;49.970;9.068;2023-03-18T07:59:41;11.80;99.90
4874;DHT22;2451;49.970;9.068;2023-03-18T08:02:09;12.30;99.90
4874;DHT22;2451;49.970;9.068;2023-03-18T08:04:35;12.70;99.90
4874;DHT22;2451;49.970;9.068;2023-03-18T08:07:00;13.00;99.90
4874;DHT22;2451;49.970;9.068;2023-03-18T08:09:27;13.00;99.90
4874;DHT22;2451;49.970;9.068;2023-03-18T08:11:53;13.00;99.90
4874;DHT22;2451;49.970;9.068;2023-03-18T08:14:19;13.10;99.90
4874;DHT22;2451;49.970;9.068;2023-03-18T08:16:44;13.00;99.90
4874;DHT22;2451;49.970;9.068;2023-03-18T08:19:10;13.00;99.90
4874;DHT22;2451;49.970;9.068;2023-03-18T08:21:36;13.00;99.90
4874;DHT22;2451;49.970;9.068;2023-03-18T08:24:02;13.10;99.90
4874;DHT22;2451;49.970;9.068;2023-03-18T08:26:27;13.30;99.90
4874;DHT22;2451;49.970;9.068;2023-03-18T08:28:53;13.60;99.90
4874;DHT22;2451;49.970;9.068;2023-03-18T08:31:19;13.90;99.90
4874;DHT22;2451;49.970;9.068;2023-03-18T08:33:44;14.10;99.90
4874;DHT22;2451;49.970;9.068;2023-03-18T08:36:10;14.30;99.90
4874;DHT22;2451;49.970;9.068;2023-03-18T08:38:36;14.60;99.90
4874;DHT22;2451;49.970;9.068;2023-03-18T08:41:02;14.80;99.90
4874;DHT22;2451;49.970;9.068;2023-03-18T08:43:28;14.90;99.90
4874;DHT22;2451;49.970;9.068;2023-03-18T08:45:54;15.10;99.90
4874;DHT22;2451;49.970;9.068;2023-03-18T08:48:22;15.30;99.90
4874;DHT22;2451;49.970;9.068;2023-03-18T08:50:48;15.40;99.90
4874;DHT22;2451;49.970;9.068;2023-03-18T08:53:14;15.60;99.90
4874;DHT22;2451;49.970;9.068;2023-03-18T08:55:40;15.70;99.90
4874;DHT22;2451;49.970;9.068;2023-03-18T08:58:06;16.00;99.90
4874;DHT22;2451;49.970;9.068;2023-03-18T09:00:34;16.10;99.90
4874;DHT22;2451;49.970;9.068;2023-03-18T09:03:00;16.30;99.90
4874;DHT22;2451;49.970;9.068;2023-03-18T09:05:27;16.50;99.90
4874;DHT22;2451;49.970;9.068;2023-03-18T09:07:52;16.70;99.90
4874;DHT22;2451;49.970;9.068;2023-03-18T09:10:18;16.90;99.90
4874;DHT22;2451;49.970;9.068;2023-03-18T09:12:45;17.00;99.90
4874;DHT22;2451;49.970;9.068;2023-03-18T09:15:12;17.20;99.90
4874;DHT22;2451;49.970;9.068;2023-03-18T09:17:40;17.30;99.90
4874;DHT22;2451;49.970;9.068;2023-03-18T09:20:07;17.70;99.90
4874;DHT22;2451;49.970;9.068;2023-03-18T09:22:34;18.00;99.90
4874;DHT22;2451;49.970;9.068;2023-03-18T09:25:00;18.20;99.90
4874;DHT22;2451;49.970;9.068;2023-03-18T09:27:26;18.30;99.90
4874;DHT22;2451;49.970;9.068;2023-03-18T09:29:52;18.50;99.90
4874;DHT22;2451;49.970;9.068;2023-03-18T09:32:18;18.70;99.90
4874;DHT22;2451;49.970;9.068;2023-03-18T09:34:44;18.70;99.90
4874;DHT22;2451;49.970;9.068;2023-03-18T09:37:10;18.70;99.70
4874;DHT22;2451;49.970;9.068;2023-03-18T09:39:38;19.00;99.90
4874;DHT22;2451;49.970;9.068;2023-03-18T09:42:29;19.30;99.90
4874;DHT22;2451;49.970;9.068;2023-03-18T09:44:59;19.30;99.30
4874;DHT22;2451;49.970;9.068;2023-03-18T09:53:42;19.70;98.50
4874;DHT22;2451;49.970;9.068;2023-03-18T09:56:14;20.10;97.80
4874;DHT22;2451;49.970;9.068;2023-03-18T09:58:46;20.30;96.30
4874;DHT22;2451;49.970;9.068;2023-03-18T10:01:13;20.40;96.00
4874;DHT22;2451;49.970;9.068;2023-03-18T10:06:22;20.90;95.40
4874;DHT22;2451;49.970;9.068;2023-03-18T10:09:15;21.30;94.70
4874;DHT22;2451;49.970;9.068;2023-03-18T10:11:45;21.70;94.30
4874;DHT22;2451;49.970;9.068;2023-03-18T10:14:53;21.90;92.80
4874;DHT22;2451;49.970;9.068;2023-03-18T10:19:50;22.00;90.20
4874;DHT22;2451;49.970;9.068;2023-03-18T10:28:04;22.80;88.70
4874;DHT22;2451;49.970;9.068;2023-03-18T10:30:49;23.00;87.80
4874;DHT22;2451;49.970;9.068;2023-03-18T10:38:34;23.40;84.80
4874;DHT22;2451;49.970;9.068;2023-03-18T10:41:01;23.40;83.70
4874;DHT22;2451;49.970;9.068;2023-03-18T10:43:30;23.50;81.40
4874;DHT22;2451;49.970;9.068;2023-03-18T10:46:00;23.20;82.10
4874;DHT22;2451;49.970;9.068;2023-03-18T10:48:34;22.60;80.60
4874;DHT22;2451;49.970;9.068;2023-03-18T10:51:27;22.10;82.90
4874;DHT22;2451;49.970;9.068;2023-03-18T10:56:19;21.70;82.70
4874;DHT22;2451;49.970;9.068;2023-03-18T10:58:45;21.80;83.00
4874;DHT22;2451;49.970;9.068;2023-03-18T11:01:13;21.70;82.70
4874;DHT22;2451;49.970;9.068;2023-03-18T11:04:01;21.80;81.80
4874;DHT22;2451;49.970;9.068;2023-03-18T11:09:16;22.10;81.70
4874;DHT22;2451;49.970;9.068;2023-03-18T11:11:44;22.20;81.10
4874;DHT22;2451;49.970;9.068;2023-03-18T11:14:18;22.50;81.00
4874;DHT22;2451;49.970;9.068;2023-03-18T11:22:03;22.90;78.90
4874;DHT22;2451;49.970;9.068;2023-03-18T11:24:30;23.00;78.90
4874;DHT22;2451;49.970;9.068;2023-03-18T11:27:24;23.40;79.80
4874;DHT22;2451;49.970;9.068;2023-03-18T11:29:59;23.60;78.40
4874;DHT22;2451;49.970;9.068;2023-03-18T11:32:30;23.90;78.30
4874;DHT22;2451;49.970;9.068;2023-03-18T11:34:58;24.10;76.10
4874;DHT22;2451;49.970;9.068;2023-03-18T11:37:36;24.50;74.90
4874;DHT22;2451;49.970;9.068;2023-03-18T11:40:25;24.30;71.90
4874;DHT22;2451;49.970;9.068;2023-03-18T11:43:02;23.70;72.10
4874;DHT22;2451;49.970;9.068;2023-03-18T11:45:56;23.10;73.20
4874;DHT22;2451;49.970;9.068;2023-03-18T11:48:34;22.50;74.10
4874;DHT22;2451;49.970;9.068;2023-03-18T11:56:22;22.60;75.10
4874;DHT22;2451;49.970;9.068;2023-03-18T12:10:31;25.00;74.40
4874;DHT22;2451;49.970;9.068;2023-03-18T12:16:15;25.60;70.90
4874;DHT22;2451;49.970;9.068;2023-03-18T12:19:01;25.80;69.10
4874;DHT22;2451;49.970;9.068;2023-03-18T12:22:01;26.30;67.10
4874;DHT22;2451;49.970;9.068;2023-03-18T12:33:53;26.50;66.10
4874;DHT22;2451;49.970;9.068;2023-03-18T12:36:51;26.50;62.60
4874;DHT22;2451;49.970;9.068;2023-03-18T12:45:15;26.50;60.80
4874;DHT22;2451;49.970;9.068;2023-03-18T12:50:35;26.10;60.90
4874;DHT22;2451;49.970;9.068;2023-03-18T12:55:44;25.50;64.20
4874;DHT22;2451;49.970;9.068;2023-03-18T12:59:04;25.70;64.40
4874;DHT22;2451;49.970;9.068;2023-03-18T13:04:29;26.20;60.40
4874;DHT22;2451;49.970;9.068;2023-03-18T13:09:39;25.60;59.20
4874;DHT22;2451;49.970;9.068;2023-03-18T13:12:10;25.00;60.60
4874;DHT22;2451;49.970;9.068;2023-03-18T13:15:03;24.80;61.80
4874;DHT22;2451;49.970;9.068;2023-03-18T13:17:36;24.50;62.40
4874;DHT22;2451;49.970;9.068;2023-03-18T13:20:12;24.30;63.00
4874;DHT22;2451;49.970;9.068;2023-03-18T13:25:25;24.10;62.40
4874;DHT22;2451;49.970;9.068;2023-03-18T13:47:41;22.00;66.10
4874;DHT22;2451;49.970;9.068;2023-03-18T13:52:43;22.00;66.80
4874;DHT22;2451;49.970;9.068;2023-03-18T14:00:32;22.70;64.80
4874;DHT22;2451;49.970;9.068;2023-03-18T14:08:46;23.30;68.60
4874;DHT22;2451;49.970;9.068;2023-03-18T14:13:52;23.70;67.20
4874;DHT22;2451;49.970;9.068;2023-03-18T14:19:17;24.00;65.90
4874;DHT22;2451;49.970;9.068;2023-03-18T14:21:45;24.30;64.50
4874;DHT22;2451;49.970;9.068;2023-03-18T14:29:40;24.80;64.40
4874;DHT22;2451;49.970;9.068;2023-03-18T14:34:58;24.50;66.60
4874;DHT22;2451;49.970;9.068;2023-03-18T14:37:29;24.00;65.20
4874;DHT22;2451;49.970;9.068;2023-03-18T14:40:04;23.50;66.20
4874;DHT22;2451;49.970;9.068;2023-03-18T14:42:39;23.30;67.80
4874;DHT22;2451;49.970;9.068;2023-03-18T14:45:30;23.30;68.00
4874;DHT22;2451;49.970;9.068;2023-03-18T14:47:57;23.20;68.90
4874;DHT22;2451;49.970;9.068;2023-03-18T14:50:39;23.20;66.80
4874;DHT22;2451;49.970;9.068;2023-03-18T14:53:17;23.20;67.70
4874;DHT22;2451;49.970;9.068;2023-03-18T14:55:47;23.40;67.40
4874;DHT22;2451;49.970;9.068;2023-03-18T14:58:18;23.60;66.90
4874;DHT22;2451;49.970;9.068;2023-03-18T15:00:46;23.90;66.40
4874;DHT22;2451;49.970;9.068;2023-03-18T15:03:26;24.10;65.40
4874;DHT22;2451;49.970;9.068;2023-03-18T15:05:56;24.20;65.40
4874;DHT22;2451;49.970;9.068;2023-03-18T15:08:26;23.70;66.30
4874;DHT22;2451;49.970;9.068;2023-03-18T15:10:52;23.40;65.90
4874;DHT22;2451;49.970;9.068;2023-03-18T15:13:20;23.20;68.10
4874;DHT22;2451;49.970;9.068;2023-03-18T15:15:47;22.90;66.70
4874;DHT22;2451;49.970;9.068;2023-03-18T15:20:38;22.60;68.00
4874;DHT22;2451;49.970;9.068;2023-03-18T15:23:06;22.60;67.20
4874;DHT22;2451;49.970;9.068;2023-03-18T15:25:34;22.40;66.80
4874;DHT22;2451;49.970;9.068;2023-03-18T15:28:02;22.40;66.90
4874;DHT22;2451;49.970;9.068;2023-03-18T15:30:30;22.40;67.50
4874;DHT22;2451;49.970;9.068;2023-03-18T15:33:07;22.50;68.60
4874;DHT22;2451;49.970;9.068;2023-03-18T15:35:43;22.30;68.30
4874;DHT22;2451;49.970;9.068;2023-03-18T15:38:15;22.40;69.20
4874;DHT22;2451;49.970;9.068;2023-03-18T15:40:52;22.10;68.10
4874;DHT22;2451;49.970;9.068;2023-03-18T15:45:56;21.90;68.80
4874;DHT22;2451;49.970;9.068;2023-03-18T15:48:27;21.70;68.90
4874;DHT22;2451;49.970;9.068;2023-03-18T15:51:01;21.60;69.50
4874;DHT22;2451;49.970;9.068;2023-03-18T15:53:32;21.70;67.80
4874;DHT22;2451;49.970;9.068;2023-03-18T15:56:08;21.60;68.30
4874;DHT22;2451;49.970;9.068;2023-03-18T15:58:37;21.60;68.20
4874;DHT22;2451;49.970;9.068;2023-03-18T16:01:04;21.50;67.20
4874;DHT22;2451;49.970;9.068;2023-03-18T16:03:33;21.50;69.20
4874;DHT22;2451;49.970;9.068;2023-03-18T16:06:00;21.30;67.60
4874;DHT22;2451;49.970;9.068;2023-03-18T16:08:26;21.10;68.90
4874;DHT22;2451;49.970;9.068;2023-03-18T16:10:54;20.80;71.00
4874;DHT22;2451;49.970;9.068;2023-03-18T16:13:28;20.60;70.00
4874;DHT22;2451;49.970;9.068;2023-03-18T16:15:55;20.40;71.60
4874;DHT22;2451;49.970;9.068;2023-03-18T16:18:21;20.20;70.50
4874;DHT22;2451;49.970;9.068;2023-03-18T16:20:47;20.20;71.60
4874;DHT22;2451;49.970;9.068;2023-03-18T16:23:14;20.20;71.60
4874;DHT22;2451;49.970;9.068;2023-03-18T16:25:42;20.10;71.90
4874;DHT22;2451;49.970;9.068;2023-03-18T16:28:23;19.90;73.20
4874;DHT22;2451;49.970;9.068;2023-03-18T16:30:51;19.80;73.40
4874;DHT22;2451;49.970;9.068;2023-03-18T16:33:18;19.60;73.80
4874;DHT22;2451;49.970;9.068;2023-03-18T16:35:46;19.50;75.40
4874;DHT22;2451;49.970;9.068;2023-03-18T16:38:16;19.60;75.10
4874;DHT22;2451;49.970;9.068;2023-03-18T16:40:43;19.60;75.80
4874;DHT22;2451;49.970;9.068;2023-03-18T16:43:19;19.50;74.80
4874;DHT22;2451;49.970;9.068;2023-03-18T16:45:47;19.50;75.90
4874;DHT22;2451;49.970;9.068;2023-03-18T16:48:16;19.40;76.50
4874;DHT22;2451;49.970;9.068;2023-03-18T16:50:43;19.30;77.30
4874;DHT22;2451;49.970;9.068;2023-03-18T16:55:38;19.20;78.70
4874;DHT22;2451;49.970;9.068;2023-03-18T16:58:04;19.10;78.90
4874;DHT22;2451;49.970;9.068;2023-03-18T17:00:30;19.00;79.70
4874;DHT22;2451;49.970;9.068;2023-03-18T17:02:58;19.00;80.20
4874;DHT22;2451;49.970;9.068;2023-03-18T17:05:24;19.00;82.00
4874;DHT22;2451;49.970;9.068;2023-03-18T17:07:53;18.90;82.70
4874;DHT22;2451;49.970;9.068;2023-03-18T17:10:21;18.70;83.30
4874;DHT22;2451;49.970;9.068;2023-03-18T17:12:57;18.60;84.60
4874;DHT22;2451;49.970;9.068;2023-03-18T17:15:30;18.50;84.80
4874;DHT22;2451;49.970;9.068;2023-03-18T17:17:58;18.40;86.00
4874;DHT22;2451;49.970;9.068;2023-03-18T17:20:27;18.40;88.50
4874;DHT22;2451;49.970;9.068;2023-03-18T17:22:53;18.30;89.90
4874;DHT22;2451;49.970;9.068;2023-03-18T17:25:20;18.20;90.20
4874;DHT22;2451;49.970;9.068;2023-03-18T17:27:48;18.00;90.80
4874;DHT22;2451;49.970;9.068;2023-03-18T17:30:30;17.80;91.70
4874;DHT22;2451;49.970;9.068;2023-03-18T17:32:56;17.60;92.30
4874;DHT22;2451;49.970;9.068;2023-03-18T17:35:22;17.50;92.70
4874;DHT22;2451;49.970;9.068;2023-03-18T17:37:48;17.40;92.80
4874;DHT22;2451;49.970;9.068;2023-03-18T17:40:17;17.20;93.60
4874;DHT22;2451;49.970;9.068;2023-03-18T17:42:44;17.00;94.80
4874;DHT22;2451;49.970;9.068;2023-03-18T17:45:31;16.70;96.00
4874;DHT22;2451;49.970;9.068;2023-03-18T17:50:37;16.60;97.70
4874;DHT22;2451;49.970;9.068;2023-03-18T17:53:03;16.50;98.40
4874;DHT22;2451;49.970;9.068;2023-03-18T17:55:28;16.40;98.90
4874;DHT22;2451;49.970;9.068;2023-03-18T17:57:54;16.30;99.40
4874;DHT22;2451;49.970;9.068;2023-03-18T18:00:23;16.20;99.60
4874;DHT22;2451;49.970;9.068;2023-03-18T18:02:51;16.10;99.90
4874;DHT22;2451;49.970;9.068;2023-03-18T18:05:22;16.00;99.90
4874;DHT22;2451;49.970;9.068;2023-03-18T18:07:49;15.90;99.90
4874;DHT22;2451;49.970;9.068;2023-03-18T18:10:18;15.80;99.90
4874;DHT22;2451;49.970;9.068;2023-03-18T18:12:46;15.70;99.90
4874;DHT22;2451;49.970;9.068;2023-03-18T18:15:24;15.60;99.90
4874;DHT22;2451;49.970;9.068;2023-03-18T18:17:52;15.50;99.90
4874;DHT22;2451;49.970;9.068;2023-03-18T18:20:19;15.40;99.90
4874;DHT22;2451;49.970;9.068;2023-03-18T18:22:49;15.40;99.90
4874;DHT22;2451;49.970;9.068;2023-03-18T18:25:18;15.20;99.90
4874;DHT22;2451;49.970;9.068;2023-03-18T18:27:45;15.10;99.90
4874;DHT22;2451;49.970;9.068;2023-03-18T18:30:16;15.00;99.90
4874;DHT22;2451;49.970;9.068;2023-03-18T18:32:42;14.90;99.90
4874;DHT22;2451;49.970;9.068;2023-03-18T18:35:17;14.80;99.90
4874;DHT22;2451;49.970;9.068;2023-03-18T18:37:43;14.80;99.90
4874;DHT22;2451;49.970;9.068;2023-03-18T18:40:13;14.60;99.90
4874;DHT22;2451;49.970;9.068;2023-03-18T18:42:39;14.50;99.90
4874;DHT22;2451;49.970;9.068;2023-03-18T18:45:06;14.50;99.90
4874;DHT22;2451;49.970;9.068;2023-03-18T18:47:35;14.40;99.90